• Join FlightAware (Why Join?)
  • Login
  • US Flag 
06:29AM EDT


 

Airport Tracker/Info


-or-


 

Live Flight TrackerFlight Track Log ✈ N11TK ✈ 03-Nov-2013 ✈ KSKX - KHQZ

Flight Track Log - Related Links

Times and Time Zones

All times are in EST time to prevent confusion due to time zone crossing. See the N11TK flight status page for this flight to view local times or setup timezone preferences in your user account.

Time Position Orientation Groundspeed Altitude Reporting Facility
EST Latitude Longitude Course Direction KTS MPH feet Rate Location/Type
12:39PM 36.4106 -105.6069 115° Southeast 169 194 11,300  Level Albuquerque Center
12:40PM 36.3939 -105.5569 112° Southeast 155 178 12,500 1,440 Climbing Albuquerque Center
12:41PM 36.3792 -105.4975 107° East 169 194 14,300 1,320 Climbing Albuquerque Center
12:42PM 36.3731 -105.4378 97° East 172 198 15,300 840 Climbing Albuquerque Center
12:44PM 36.3472 -105.3669 114° Southeast 217 250 16,100 960 Climbing Albuquerque Center
12:45PM 36.2777 -105.1630 115° Southeast  Level Estimated
12:45PM 36.3192 -105.2844 113° Southeast 220 253 17,300  Level Albuquerque Center
12:46PM 36.2942 -105.2158 114° Southeast 218 251 18,500 900 Climbing Albuquerque Center
12:47PM 36.2697 -105.1422 112° Southeast 223 257 19,200 720 Climbing Albuquerque Center
12:48PM 36.2444 -105.0717 114° Southeast 222 255 20,100 780 Climbing Albuquerque Center
12:49PM 36.2186 -104.9994 114° Southeast 225 259 20,900 900 Climbing Albuquerque Center
12:50PM 36.1931 -104.9272 114° Southeast 227 261 22,000 960 Climbing Albuquerque Center
12:51PM 36.1664 -104.8569 115° Southeast 226 260 23,000 960 Climbing Albuquerque Center
12:52PM 36.1361 -104.7697 113° Southeast 232 267 24,100 840 Climbing Albuquerque Center
12:53PM 36.1081 -104.6936 115° Southeast 238 274 24,800 720 Climbing Albuquerque Center
12:54PM 36.0803 -104.6178 114° Southeast 240 276 25,600 780 Climbing Albuquerque Center
12:55PM 36.0508 -104.5378 114° Southeast 248 285 26,500 660 Climbing Albuquerque Center
12:56PM 36.0214 -104.4575 114° Southeast 253 291 27,000 240 Climbing Albuquerque Center
12:57PM 35.9892 -104.3717 115° Southeast 264 304 27,000  Level Albuquerque Center
12:58PM 35.9561 -104.2789 114° Southeast 284 327 27,000  Level Albuquerque Center
12:59PM 35.9222 -104.1864 114° Southeast 290 334 27,000  Level Albuquerque Center
01:00PM 35.8836 -104.0817 114° Southeast 287 330 27,000  Level Albuquerque Center
01:01PM 35.8503 -103.9925 115° Southeast 283 326 27,000  Level Albuquerque Center
01:02PM 35.8178 -103.9022 114° Southeast 285 328 27,000  Level Albuquerque Center
01:03PM 35.7825 -103.8097 115° Southeast 290 334 27,000  Level Albuquerque Center
01:04PM 35.7478 -103.7161 115° Southeast 295 339 27,000  Level Albuquerque Center
01:05PM 35.7133 -103.6244 115° Southeast 293 337 27,000  Level Albuquerque Center
01:06PM 35.6800 -103.5331 114° Southeast 291 335 27,000  Level Albuquerque Center
01:07PM 35.6456 -103.4417 115° Southeast 291 335 27,000  Level Albuquerque Center
01:08PM 35.6044 -103.3356 115° Southeast 291 335 27,000  Level Albuquerque Center
01:09PM 35.5700 -103.2419 114° Southeast 296 341 27,000  Level Albuquerque Center
01:10PM 35.5347 -103.1497 115° Southeast 296 341 27,000  Level Albuquerque Center
01:11PM 35.4994 -103.0564 115° Southeast 297 342 27,000  Level Albuquerque Center
01:12PM 35.4628 -102.9617 115° Southeast 301 346 27,000  Level Albuquerque Center
01:14PM 35.4272 -102.8686 115° Southeast 300 345 27,000  Level Albuquerque Center
01:15PM 35.3914 -102.7767 116° Southeast 297 342 27,000  Level Albuquerque Center
01:16PM 35.3556 -102.6847 116° Southeast 296 341 27,000  Level Albuquerque Center
01:17PM 35.3147 -102.5808 116° Southeast 295 339 27,000  Level Albuquerque Center
01:18PM 35.2792 -102.4914 116° Southeast 295 339 27,000  Level Albuquerque Center
01:19PM 35.2439 -102.4000 115° Southeast 297 342 27,000  Level Albuquerque Center
01:20PM 35.2083 -102.3097 116° Southeast 296 341 27,000  Level Albuquerque Center
01:21PM 35.1731 -102.2175 115° Southeast 299 344 27,000  Level Albuquerque Center
01:22PM 35.1300 -102.1086 116° Southeast 299 344 27,000  Level Albuquerque Center
01:23PM 35.0947 -102.0175 115° Southeast 299 344 27,000  Level Albuquerque Center
01:24PM 35.0567 -101.9178 115° Southeast 298 343 27,000  Level Albuquerque Center
01:25PM 35.0189 -101.8264 117° Southeast 298 343 27,000  Level Albuquerque Center
01:26PM 34.9833 -101.7347 115° Southeast 297 342 27,000  Level Albuquerque Center
01:27PM 34.9450 -101.6392 116° Southeast 299 344 27,000  Level Albuquerque Center
01:28PM 34.9094 -101.5503 116° Southeast 296 341 27,000  Level Albuquerque Center
01:29PM 34.8756 -101.4631 115° Southeast 290 334 27,000  Level Albuquerque Center
01:30PM 34.8417 -101.3775 116° Southeast 285 328 27,000  Level Albuquerque Center
01:31PM 34.8072 -101.2919 116° Southeast 282 325 27,000  Level Albuquerque Center
01:32PM 34.7653 -101.1892 116° Southeast 283 326 27,000  Level Albuquerque Center
01:33PM 34.7311 -101.1039 116° Southeast 282 325 27,000  Level Albuquerque Center
01:34PM 34.6958 -101.0186 117° Southeast 284 327 27,000  Level Albuquerque Center
01:35PM 34.6611 -100.9311 116° Southeast 287 330 27,000  Level Albuquerque Center
01:36PM 34.6256 -100.8436 116° Southeast 288 331 27,000  Level Albuquerque Center
01:37PM 34.5839 -100.7417 116° Southeast 284 327 27,000  Level Albuquerque Center
01:38PM 34.5489 -100.6575 117° Southeast 282 325 27,000  Level Albuquerque Center
01:39PM 34.5144 -100.5733 116° Southeast 280 322 27,000 -300 Level Albuquerque Center
01:40PM 34.4792 -100.4881 117° Southeast 282 325 26,500 -720 Descending Albuquerque Center
01:41PM 34.4408 -100.3969 117° Southeast 296 341 25,600 -840 Descending Albuquerque Center
01:42PM 34.4022 -100.3008 116° Southeast 313 360 24,800 -780 Descending Albuquerque Center
01:43PM 34.3569 -100.1919 117° Southeast 307 353 24,000 -360 Descending Albuquerque Center
01:45PM 34.3136 -100.0889 117° Southeast 288 331 24,000 -60 Level Fort Worth Center
01:46PM 34.2778 -100.0072 118° Southeast 278 320 23,900 -480 Descending Fort Worth Center
01:47PM 34.2419 -99.9208 117° Southeast 283 326 23,100 -840 Descending Fort Worth Center
01:48PM 34.2042 -99.8267 116° Southeast 291 335 22,300 -840 Descending Fort Worth Center
01:49PM 34.1661 -99.7428 119° Southeast 296 341 21,500 -660 Descending Fort Worth Center
01:50PM 34.1283 -99.6514 117° Southeast 296 341 21,000 -240 Descending Fort Worth Center
01:51PM 34.0986 -99.5581 111° Southeast 291 335 21,100 -120 Climbing Fort Worth Center
01:52PM 34.0708 -99.4694 111° Southeast 291 335 20,800 -540 Descending Fort Worth Center
01:53PM 34.0469 -99.3911 110° East 285 328 20,100 -720 Descending Fort Worth Center
01:53PM 34.0369 -99.3658 116° Southeast 284 327 20,000 -900 Descending Fort Worth Center
01:53PM 34.0350 -99.3583 107° East 285 328 19,900 -600 Descending Fort Worth Center
01:54PM 34.0192 -99.3003 108° East 280 322 19,500 -600 Descending Fort Worth Center
01:54PM 34.0092 -99.2750 116° Southeast 288 331 19,300 -840 Descending Fort Worth Center
01:55PM 33.9894 -99.2019 108° East 280 322 18,700 -840 Descending Fort Worth Center
01:55PM 33.9792 -99.1792 119° Southeast 288 331 18,500 -720 Descending Fort Worth Center
01:56PM 33.9636 -99.1114 105° East 286 329 18,000 -720 Descending Fort Worth Center
01:56PM 33.9533 -99.0911 121° Southeast 290 334 17,800 -540 Descending Fort Worth Center
01:57PM 33.9356 -99.0233 108° East 286 329 17,500 -540 Descending Fort Worth Center
01:57PM 33.9275 -99.0006 113° Southeast 273 314 17,300 -720 Descending Fort Worth Center
01:58PM 33.9133 -98.9478 108° East 274 315 16,800 -720 Descending Fort Worth Center
01:58PM 33.9033 -98.9225 115° Southeast 261 300 16,600 -720 Descending Fort Worth Center
01:59PM 33.8956 -98.8647 99° East 269 310 16,100 -840 Descending Fort Worth Center
01:59PM 33.8856 -98.8322 110° East 255 293 15,800 -840 Descending Fort Worth Center
02:00PM 33.8739 -98.7719 103° East 267 307 15,300 -720 Descending Fort Worth Center
02:01PM 33.8539 -98.6889 106° East 267 307 14,600 -720 Descending Fort Worth Center
02:02PM 33.8358 -98.6089 105° East 262 302 13,900 -660 Descending Fort Worth Center
02:03PM 33.8094 -98.5283 111° Southeast 262 302 13,300 -540 Descending Fort Worth Center
02:04PM 33.7831 -98.4431 110° East 254 292 12,900 -420 Descending Fort Worth Center
02:05PM 33.7564 -98.3678 113° Southeast 249 287 12,500 -420 Descending Fort Worth Center
02:06PM 33.7300 -98.2900 112° Southeast 249 287 12,100 -360 Descending Fort Worth Center
02:07PM 33.7075 -98.2175 110° East 254 292 11,800 -360 Descending Fort Worth Center
02:08PM 33.6808 -98.1375 112° Southeast 259 298 11,400 -420 Descending Fort Worth Center
02:09PM 33.6500 -98.0472 112° Southeast 259 298 11,000 -480 Descending Fort Worth Center
02:10PM 33.6211 -97.9672 113° Southeast 259 298 10,500 -660 Descending Fort Worth Center
02:11PM 33.5944 -97.8847 111° Southeast 254 292 9,700 -660 Descending Fort Worth Center
02:12PM 33.5717 -97.8172 112° Southeast 254 292 9,200 -600 Descending Fort Worth Center
02:13PM 33.5406 -97.7375 115° Southeast 247 284 8,600 -600 Descending Fort Worth Center
02:14PM 33.5178 -97.6700 112° Southeast 237 273 8,100 -480 Descending Fort Worth Center
02:15PM 33.4928 -97.6003 113° Southeast 237 273 7,700 -420 Descending Fort Worth Center
02:16PM 33.4678 -97.5231 111° Southeast 232 267 7,300 -420 Descending Fort Worth Center
02:17PM 33.4428 -97.4633 117° Southeast 232 267 6,900 -540 Descending Fort Worth Center
02:18PM 33.3928 -97.4108 139° Southeast 217 250 6,300 -660 Descending Fort Worth Center
02:19PM 33.3781 -97.3464 105° East 217 250 5,600 -660 Descending Fort Worth Center
02:20PM 33.3803 -97.2592 88° East 226 260 5,000 -420 Descending Fort Worth Center
02:21PM 33.3822 -97.1894 88° East 231 266 4,800 -360 Descending Fort Worth Center
02:22PM 33.3842 -97.1075 88° East 226 260 4,300 -420 Descending Fort Worth Center
02:23PM 33.3694 -97.0453 106° East 208 239 4,000 -360 Descending Fort Worth Center
02:24PM 33.3461 -96.9883 116° Southeast 191 220 3,600 -540 Descending Fort Worth Center
02:25PM 33.3000 -96.9511 146° Southeast 186 214 3,000 -300 Descending Fort Worth Center
02:26PM 33.2561 -96.9242 153° Southeast 188 216 3,000  Level Fort Worth Center
02:27PM 33.2164 -96.8919 146° Southeast 177 204 3,000  Level Fort Worth Center
02:28PM 33.1786 -96.8575 143° Southeast 177 204 3,000 -60 Level Fort Worth Center
02:30PM 33.1000 -96.7833 142° Southeast 172 198 2,900 -60 Descending Dallas / Fort Worth TRACON
02:31PM 33.0667 -96.7500 140° Southeast 171 197 2,900  Level Dallas / Fort Worth TRACON
02:32PM 33.0333 -96.7167 140° Southeast 175 201 2,900 -240 Level Dallas / Fort Worth TRACON
02:33PM 33.0000 -96.6667 128° Southeast 185 213 2,400 -300 Descending Dallas / Fort Worth TRACON
02:34PM 32.9667 -96.6167 128° Southeast 167 192 2,400  Level Dallas / Fort Worth TRACON
02:35PM 32.9333 -96.5833 140° Southeast 161 185 2,400  Level Dallas / Fort Worth TRACON